Weather at Washington Dulles International Airport

Public forecast

Using degrees Fahrenheit for public forecast. Weather courtesy of forecast.io.

Current aviation weather report (METAR) for Washington Dulles International Airport

Retrieved 2020/10/27 04:52 UTC (30 minutes ago):

KIAD 270452Z 00000KT 10SM BKN080 13/12 A3012 RMK AO2 SLP200 T01280122 401610078

Aviation forecast (TAF) for Washington Dulles International Airport

Retrieved 2020-10-27 00:22 UTC (5 hours ago):

TAF KIAD 262320Z 2700/2806 VRB03KT P6SM SCT008 BKN035 FM270300 VRB03KT P6SM SCT003 BKN010 FM270600 VRB03KT 1 1/2SM BR BKN003 FM270900 33005KT 5SM BR SCT020 BKN030 FM271200 34005KT P6SM SCT025 OVC040